Verdi, Nevada
Current Conditions -  °F | °C
As of 1:55 PM on Monday 22 Dec 2014 (Local Time) from KRNO Reporting Station
Broken Clouds Broken Clouds  
Wind Chill: 60°   Ceiling: 5000
Heat Index: 60°   Visibility: 10mi
Dew Point: 38°   Wind: 16mph
Humidity: 44%   Direction: 10°N
Pressure: 30.29"   Gusts: NA
Location:  39.52°N, 119.99°W
Report Text: KRNO 222155Z 01014KT 10SM BKN050 BKN140 BKN190 16/03 A3029 RMK AO2 SLP241 ACSL DSNT E SE T01560033
Loading
Personal Weather Stations






























Interactive Weather Map New forecast layout! Learn more

10-Day Weather Forecast

Advertisements
Track Severe Weather on mobile